Overview Statistics Trail Chart Weather Telemetry Raw packets
 

This is the latest recevied telemetry packets stored in our database for station/object IU5RCZ-5. If no packets are shown the sender has not sent any telemetry packets the latest 10 day(s).

Telemetry packets is used to share measurements like repeteater parameters, battery voltage, radiation readings (or any other measurements).

<< 1 2 3 4 >>
Time Press* Temp.in* Hum* QNH* Temp.out*
1788696278 1009.8 hPa 34.1 C deg 34.7 % 1014.2 hPa 0 C deg
1788694437 1009.9 hPa 34 C deg 34.4 % 1014.3 hPa 0 C deg
1788689615 1015.5 hPa 35.6 C deg 32.8 % 1019.9 hPa 0 C deg
1788689529 1015.4 hPa 34.6 C deg 33.3 % 1019.8 hPa 0 C deg
1788689090 1015.3 hPa 34.5 C deg 32.2 % 1019.7 hPa 0 C deg
1788687442 1015.5 hPa 34.5 C deg 32.9 % 1019.9 hPa 0 C deg
1788687253 1015.5 hPa 34.5 C deg 32.9 % 1019.9 hPa 0 C deg
1788681270 1015.6 hPa 36.1 C deg 31.8 % 1020 hPa 0 C deg
1788678754 1010.8 hPa 32.8 C deg 38.5 % 1015.2 hPa 0 C deg
1788676051 1010.2 hPa 32.7 C deg 36.8 % 1014.6 hPa 0 C deg
1788674293 1010.1 hPa 33.6 C deg 35.9 % 1014.5 hPa 0 C deg
1788674117 1010.1 hPa 33.8 C deg 35.8 % 1014.5 hPa 0 C deg
1788672614 1010 hPa 34.2 C deg 34.9 % 1014.4 hPa 0 C deg
1788672502 1010 hPa 34.2 C deg 34.9 % 1014.4 hPa 0 C deg
1788670690 1010 hPa 34.2 C deg 34.5 % 1014.4 hPa 0 C deg
1788668864 1009.9 hPa 34.2 C deg 34.6 % 1014.3 hPa 0 C deg
1788667034 1009.8 hPa 34.1 C deg 34.9 % 1014.1 hPa 0 C deg
1788665227 1009.4 hPa 34.2 C deg 34.9 % 1013.8 hPa 0 C deg
1788663428 1009.3 hPa 34.3 C deg 35 % 1013.7 hPa 0 C deg
1788661586 1009.4 hPa 34.3 C deg 34.7 % 1013.8 hPa 0 C deg
1788659683 1009.3 hPa 34.3 C deg 34.9 % 1013.7 hPa 0 C deg
1788656030 1009.3 hPa 34.5 C deg 34 % 1013.6 hPa 0 C deg
1788653602 1009.2 hPa 35 C deg 34 % 1013.6 hPa 0 C deg
1788652974 1009.3 hPa 35 C deg 33.7 % 1013.7 hPa 0 C deg
1788652229 1009.3 hPa 35 C deg 33.7 % 1013.7 hPa 0 C deg
*Used Equation Coefficients:
Press: 0, 1, 0
Temp.in: 0, 1, 0
Hum: 0, 1, 0
QNH: 0, 1, 0
Temp.out: 0, 1, 0

  • The parameter names for the analog channels will be Value1, Value2, Value3 (up to Value5) if station has not sent a PARAM-packet that specifies the parameter names for each analog channel.
  • Each analog value is a decimal number between 000 and 255 (according to APRS specifications). The receiver use the telemetry equation coefficientsto to restore the original sensor values. If no EQNS-packet with equation coefficients is sent we will show the values as is (this corresponds to the equation coefficients a=0, b=1 and c=0).
    The sent equation coefficients is used in the equation: a * value2 + b * value + c.
  • The units for the analog values will not be shown if station has not sent a UNIT-packet specifying what unit's to use.
  • The parameter names for the digital bits will be Bit1, Bit2, Bit3 (up to Bit8) if station has not sent a PARAM-packet that specifies the parameter names for each digital bit.
  • All bit labels will be named "On" if station has not sent a UNIT-packet that specifies the label of each bit.
  • A bit is considered to be On when the bit is 1 if station has not sent a BITS-packet that specifies another "Bit sense" (a BITS-packet specify the state of the bits that match the BIT labels)